Time;durP1;ratioP1;P1;durP2;ratioP2;P2;SDS_P1;SDS_P2;PMS_P1;PMS_P2;Temp;Humidity;BMP_temperature;BMP_pressure;BME280_temperature;BME280_humidity;BME280_pressure;Samples;Min_cycle;Max_cycle;Signal;HPM_P1;HPM_P2
2021/11/23 00:01:50;;;;;;;5.53;4.97;;;6.20;99.90;;;;;;5011887;28;20814;-47
2021/11/23 00:04:15;;;;;;;5.23;4.73;;;6.30;99.90;;;;;;5010915;28;20211;-51
2021/11/23 00:06:41;;;;;;;5.30;4.80;;;6.30;99.90;;;;;;5010702;28;20206;-49
2021/11/23 00:09:06;;;;;;;5.53;5.03;;;6.30;99.90;;;;;;4999934;28;20604;-47
2021/11/23 00:11:32;;;;;;;5.13;4.63;;;6.30;99.90;;;;;;5006487;28;20192;-51
2021/11/23 00:13:58;;;;;;;5.37;4.87;;;6.30;99.90;;;;;;5011917;28;20596;-49
2021/11/23 00:16:23;;;;;;;5.30;4.80;;;6.30;99.90;;;;;;5011613;28;20177;-52
2021/11/23 00:18:49;;;;;;;7.07;5.43;;;6.40;99.90;;;;;;5011644;28;20196;-48
2021/11/23 00:21:16;;;;;;;5.40;4.90;;;6.40;99.90;;;;;;5024562;28;20194;-48
2021/11/23 00:23:42;;;;;;;5.30;4.80;;;6.50;99.90;;;;;;5031561;28;20199;-49
2021/11/23 00:26:07;;;;;;;5.47;4.97;;;6.40;99.90;;;;;;5011148;28;20176;-49
2021/11/23 00:28:34;;;;;;;5.40;4.90;;;6.40;99.90;;;;;;5009433;28;20242;-49
2021/11/23 00:30:59;;;;;;;5.63;5.03;;;6.40;99.90;;;;;;5023827;23;20772;-53
2021/11/23 00:33:30;;;;;;;5.50;5.00;;;6.40;99.90;;;;;;4995069;28;20263;-55
2021/11/23 00:35:56;;;;;;;5.27;4.77;;;6.50;99.90;;;;;;4989603;28;20544;-53
2021/11/23 00:38:21;;;;;;;5.90;5.30;;;6.40;99.90;;;;;;4994483;28;20184;-54
2021/11/23 00:40:47;;;;;;;5.40;4.90;;;6.40;99.90;;;;;;4991813;28;20200;-53
2021/11/23 00:43:13;;;;;;;5.13;4.63;;;6.30;99.90;;;;;;4990639;28;20299;-52
2021/11/23 00:45:41;;;;;;;6.27;5.40;;;6.30;99.90;;;;;;4991838;28;20177;-52
2021/11/23 00:48:06;;;;;;;6.00;5.00;;;6.30;99.90;;;;;;4991734;28;20173;-55
2021/11/23 00:50:33;;;;;;;6.03;5.43;;;6.40;99.90;;;;;;4991632;28;20368;-52
2021/11/23 00:53:00;;;;;;;5.87;4.93;;;6.30;99.90;;;;;;4991754;28;20530;-56
2021/11/23 00:55:25;;;;;;;5.47;4.97;;;6.30;99.90;;;;;;5006581;28;20226;-54
2021/11/23 00:57:51;;;;;;;5.70;5.20;;;6.30;99.90;;;;;;5009554;28;20173;-52
2021/11/23 01:00:17;;;;;;;6.07;5.47;;;6.30;99.90;;;;;;4991506;28;20200;-52
2021/11/23 01:02:43;;;;;;;6.03;5.43;;;6.30;99.90;;;;;;4991927;28;20710;-52
2021/11/23 01:05:09;;;;;;;5.90;5.33;;;6.30;99.90;;;;;;4992097;28;20185;-53
2021/11/23 01:07:34;;;;;;;5.43;4.93;;;6.30;99.90;;;;;;4987003;28;20177;-56
2021/11/23 01:10:02;;;;;;;6.20;5.60;;;6.30;99.90;;;;;;4990984;28;20220;-53
2021/11/23 01:12:28;;;;;;;5.90;5.30;;;6.20;99.90;;;;;;4982505;28;20568;-54
2021/11/23 01:14:53;;;;;;;5.90;5.10;;;6.20;99.90;;;;;;4993180;28;20264;-54
2021/11/23 01:17:19;;;;;;;6.90;5.77;;;6.20;99.90;;;;;;4995620;28;20605;-52
2021/11/23 01:19:45;;;;;;;5.70;5.20;;;6.20;99.90;;;;;;4995894;28;20224;-52
2021/11/23 01:22:11;;;;;;;5.87;5.27;;;6.10;99.90;;;;;;4995638;28;20177;-53
2021/11/23 01:24:37;;;;;;;5.53;4.93;;;6.10;99.90;;;;;;4995479;28;20256;-48
2021/11/23 01:27:03;;;;;;;5.93;5.37;;;6.10;99.90;;;;;;4993627;28;20259;-53
2021/11/23 01:29:29;;;;;;;5.80;5.20;;;6.10;99.90;;;;;;4991847;28;20648;-52
2021/11/23 01:31:54;;;;;;;6.23;5.63;;;6.10;99.90;;;;;;4995695;28;20179;-54
2021/11/23 01:34:21;;;;;;;6.07;5.47;;;6.10;99.90;;;;;;4995370;28;20243;-53
2021/11/23 01:36:48;;;;;;;5.53;5.03;;;6.00;99.90;;;;;;4995264;28;20169;-55
2021/11/23 01:39:13;;;;;;;5.63;5.07;;;6.00;99.90;;;;;;4994939;28;20185;-55
2021/11/23 01:41:39;;;;;;;5.57;4.97;;;6.00;99.90;;;;;;4995280;28;20189;-55
2021/11/23 01:44:05;;;;;;;5.93;5.37;;;5.90;99.90;;;;;;4995105;28;20212;-53
2021/11/23 01:46:31;;;;;;;6.73;5.67;;;5.80;99.90;;;;;;4995181;28;20169;-57
2021/11/23 01:48:57;;;;;;;6.57;5.50;;;5.80;99.90;;;;;;4991089;28;20183;-53
2021/11/23 01:51:23;;;;;;;5.87;5.37;;;5.80;99.90;;;;;;4994596;28;20177;-52
2021/11/23 01:53:49;;;;;;;6.77;5.50;;;5.70;99.90;;;;;;4995213;28;20181;-53
2021/11/23 01:56:15;;;;;;;6.23;5.60;;;5.70;99.90;;;;;;4994827;28;20248;-57
2021/11/23 01:58:41;;;;;;;5.50;5.00;;;5.60;99.90;;;;;;4995002;28;20176;-53
2021/11/23 02:01:09;;;;;;;6.10;5.43;;;5.60;99.90;;;;;;4994960;28;20189;-52
2021/11/23 02:03:37;;;;;;;6.47;5.87;;;5.60;99.90;;;;;;4995116;28;20251;-54
2021/11/23 02:06:03;;;;;;;5.60;5.10;;;5.60;99.90;;;;;;4994713;28;20300;-53
2021/11/23 02:08:29;;;;;;;6.20;5.17;;;5.60;99.90;;;;;;4989848;28;20256;-55
2021/11/23 02:10:55;;;;;;;6.30;5.33;;;5.50;99.90;;;;;;4994151;28;20225;-58
2021/11/23 02:13:22;;;;;;;5.40;4.90;;;5.50;99.90;;;;;;4994598;28;20177;-55
2021/11/23 02:15:48;;;;;;;5.70;5.13;;;5.40;99.90;;;;;;4994539;28;20260;-55
2021/11/23 02:18:19;;;;;;;6.10;5.50;;;5.40;99.90;;;;;;4994699;28;20172;-53
2021/11/23 02:20:45;;;;;;;6.53;5.30;;;5.40;99.90;;;;;;4994784;28;20192;-56
2021/11/23 02:23:11;;;;;;;5.47;4.97;;;5.40;99.90;;;;;;4994340;28;20204;-56
2021/11/23 02:25:37;;;;;;;6.20;5.60;;;6.60;99.90;;;;;;4993437;28;20201;-52
2021/11/23 02:28:07;;;;;;;5.80;5.27;;;5.30;99.90;;;;;;4989636;28;21001;-53
2021/11/23 02:30:37;;;;;;;5.93;5.43;;;5.30;99.90;;;;;;4993774;28;20299;-54
2021/11/23 02:33:03;;;;;;;5.57;5.03;;;5.20;99.90;;;;;;4994583;28;20177;-54
2021/11/23 02:35:28;;;;;;;5.80;5.10;;;5.20;99.90;;;;;;4993819;28;20264;-56
2021/11/23 02:37:55;;;;;;;5.87;5.27;;;5.00;99.90;;;;;;4994518;28;20601;-53
2021/11/23 02:40:22;;;;;;;6.73;5.70;;;5.10;99.90;;;;;;4994091;28;20193;-53
2021/11/23 02:42:49;;;;;;;5.80;5.30;;;5.00;99.90;;;;;;4994285;28;20205;-54
2021/11/23 02:45:19;;;;;;;6.40;5.30;;;5.00;99.90;;;;;;4993955;28;20181;-53
2021/11/23 02:47:45;;;;;;;5.80;5.27;;;5.00;99.90;;;;;;4990613;28;20952;-53
2021/11/23 02:50:13;;;;;;;6.30;5.20;;;5.00;99.90;;;;;;4993193;28;20203;-52
2021/11/23 02:52:45;;;;;;;6.07;5.47;;;5.00;99.90;;;;;;4994130;28;20177;-54
2021/11/23 02:55:11;;;;;;;5.87;5.27;;;4.90;99.90;;;;;;4993802;28;20176;-54
2021/11/23 02:57:37;;;;;;;5.50;5.00;;;4.90;99.90;;;;;;4993578;28;20702;-53
2021/11/23 03:00:09;;;;;;;5.70;5.20;;;4.90;99.90;;;;;;4993858;28;20193;-58
2021/11/23 03:02:35;;;;;;;5.53;4.93;;;4.90;99.90;;;;;;4993841;28;20636;-57
2021/11/23 03:05:03;;;;;;;5.80;5.17;;;4.80;99.90;;;;;;4993659;28;20408;-58
2021/11/23 03:07:29;;;;;;;6.63;5.20;;;4.80;99.90;;;;;;4991687;28;20192;-57
2021/11/23 03:09:56;;;;;;;5.83;5.17;;;4.80;99.90;;;;;;4993688;28;20664;-57
2021/11/23 03:12:25;;;;;;;5.90;5.30;;;4.80;99.90;;;;;;4993875;28;20221;-54
2021/11/23 03:14:51;;;;;;;6.93;5.43;;;4.70;99.90;;;;;;4993339;28;20563;-53
2021/11/23 03:17:18;;;;;;;5.67;5.07;;;4.70;99.90;;;;;;4993417;28;20178;-54
2021/11/23 03:19:45;;;;;;;5.67;5.10;;;4.70;99.90;;;;;;4993533;28;20196;-54
2021/11/23 03:22:11;;;;;;;5.93;5.30;;;4.70;99.90;;;;;;4992020;28;20189;-54
2021/11/23 03:24:37;;;;;;;6.20;5.20;;;4.70;99.90;;;;;;4993012;28;20289;-50
2021/11/23 03:27:04;;;;;;;5.90;5.30;;;4.60;99.90;;;;;;4992742;28;20228;-53
2021/11/23 03:29:29;;;;;;;5.90;5.30;;;4.60;99.90;;;;;;4988359;28;20292;-59
2021/11/23 03:31:56;;;;;;;5.47;4.97;;;4.60;99.90;;;;;;4992783;28;20249;-57
2021/11/23 03:34:21;;;;;;;7.03;5.87;;;4.60;99.90;;;;;;4991781;28;20184;-58
2021/11/23 03:36:48;;;;;;;6.97;5.90;;;4.50;99.90;;;;;;4992716;28;20181;-55
2021/11/23 03:39:14;;;;;;;5.80;5.20;;;4.50;99.90;;;;;;4993018;28;20192;-55
2021/11/23 03:41:40;;;;;;;6.93;5.47;;;4.40;99.90;;;;;;4993206;28;20223;-57
2021/11/23 03:44:06;;;;;;;5.40;4.77;;;4.40;99.90;;;;;;4993074;28;20212;-54
2021/11/23 03:46:31;;;;;;;6.73;5.33;;;4.40;99.90;;;;;;4992615;28;20529;-55
2021/11/23 03:48:57;;;;;;;5.77;5.17;;;4.40;99.90;;;;;;4988170;28;20200;-56
2021/11/23 03:51:23;;;;;;;5.73;5.00;;;4.50;99.90;;;;;;4992069;28;20177;-57
2021/11/23 03:53:48;;;;;;;5.60;5.10;;;4.60;99.90;;;;;;4993066;28;20185;-56
2021/11/23 03:56:14;;;;;;;5.90;5.10;;;4.40;99.90;;;;;;4992266;28;20192;-53
2021/11/23 03:58:41;;;;;;;5.50;5.00;;;4.40;99.90;;;;;;4992791;28;20185;-57
2021/11/23 04:01:07;;;;;;;5.00;4.50;;;4.40;99.90;;;;;;4992497;28;20197;-57
2021/11/23 04:03:34;;;;;;;5.80;5.20;;;4.40;99.90;;;;;;4992733;28;20205;-55
2021/11/23 04:06:03;;;;;;;5.47;4.90;;;4.40;99.90;;;;;;4992470;28;20636;-56
2021/11/23 04:08:29;;;;;;;5.50;5.00;;;4.40;99.90;;;;;;4988214;28;20682;-54
2021/11/23 04:10:55;;;;;;;5.00;4.50;;;4.40;99.90;;;;;;4992248;28;20201;-56
2021/11/23 04:13:21;;;;;;;5.27;4.77;;;4.40;99.90;;;;;;4992518;28;20185;-58
2021/11/23 04:15:47;;;;;;;5.13;4.63;;;4.40;99.90;;;;;;4992256;28;20185;-55
2021/11/23 04:18:13;;;;;;;5.30;4.80;;;4.40;99.90;;;;;;4992411;28;20177;-53
2021/11/23 04:20:38;;;;;;;5.17;4.67;;;4.00;99.90;;;;;;4992554;28;20810;-55
2021/11/23 04:23:05;;;;;;;5.20;4.70;;;4.40;99.90;;;;;;4992629;28;20571;-55
2021/11/23 04:25:31;;;;;;;4.90;4.50;;;4.30;99.90;;;;;;4992164;28;20231;-54
2021/11/23 04:27:57;;;;;;;5.10;4.60;;;4.30;99.90;;;;;;4991675;28;20185;-55
2021/11/23 04:30:23;;;;;;;5.17;4.50;;;4.30;99.90;;;;;;4992100;28;20219;-57
2021/11/23 04:32:50;;;;;;;7.30;4.70;;;4.30;99.90;;;;;;4992295;28;20213;-54
2021/11/23 04:35:16;;;;;;;5.37;4.80;;;4.20;99.90;;;;;;4992075;28;20180;-57
2021/11/23 04:37:42;;;;;;;6.17;5.03;;;4.20;99.90;;;;;;4992251;28;20182;-53
2021/11/23 04:40:10;;;;;;;5.70;5.10;;;4.20;99.90;;;;;;4992061;28;20197;-53
2021/11/23 04:42:37;;;;;;;5.13;4.63;;;4.20;99.90;;;;;;4992344;28;20279;-57
2021/11/23 04:45:04;;;;;;;5.77;4.70;;;4.20;99.90;;;;;;4991836;28;20200;-54
2021/11/23 04:47:30;;;;;;;5.10;4.40;;;4.10;99.90;;;;;;4989776;28;20288;-54
2021/11/23 04:49:57;;;;;;;5.17;4.67;;;4.10;99.90;;;;;;4989715;28;20288;-58
2021/11/23 04:52:23;;;;;;;5.30;4.80;;;4.00;99.90;;;;;;4991996;28;20582;-57
2021/11/23 04:54:49;;;;;;;4.97;4.47;;;4.00;99.90;;;;;;4992064;28;20266;-58
2021/11/23 04:57:15;;;;;;;4.63;4.23;;;5.30;99.90;;;;;;4992021;28;20177;-58
2021/11/23 04:59:40;;;;;;;4.70;4.20;;;4.00;99.90;;;;;;4991948;28;20205;-54
2021/11/23 05:02:06;;;;;;;6.47;4.70;;;4.00;99.90;;;;;;4991878;28;20235;-58
2021/11/23 05:04:31;;;;;;;8.03;4.47;;;4.00;99.90;;;;;;4991631;28;20208;-55
2021/11/23 05:06:57;;;;;;;5.77;4.40;;;4.70;99.90;;;;;;4991045;28;20178;-52
2021/11/23 05:09:23;;;;;;;5.67;4.80;;;4.00;99.90;;;;;;4987955;28;20201;-57
2021/11/23 05:11:49;;;;;;;5.73;4.77;;;4.00;99.90;;;;;;4991716;28;20188;-51
2021/11/23 05:14:15;;;;;;;5.87;4.50;;;4.00;99.90;;;;;;4992175;28;20212;-52
2021/11/23 05:16:41;;;;;;;4.83;4.33;;;4.00;99.90;;;;;;4991632;28;20185;-52
2021/11/23 05:19:07;;;;;;;5.00;4.33;;;4.00;99.90;;;;;;4991701;28;20178;-51
2021/11/23 05:21:33;;;;;;;5.07;4.57;;;4.00;99.90;;;;;;4991915;28;20260;-52
2021/11/23 05:23:58;;;;;;;4.77;4.30;;;3.90;99.90;;;;;;4991648;28;20215;-51
2021/11/23 05:26:24;;;;;;;5.50;4.30;;;3.90;99.90;;;;;;4991576;28;20223;-52
2021/11/23 05:28:49;;;;;;;4.40;4.00;;;3.90;99.90;;;;;;4987683;28;20184;-53
2021/11/23 05:31:15;;;;;;;4.60;4.10;;;3.90;99.90;;;;;;4990819;28;20212;-53
2021/11/23 05:33:41;;;;;;;4.53;4.13;;;3.90;99.90;;;;;;4990417;28;20260;-51
2021/11/23 05:36:06;;;;;;;4.40;4.00;;;3.90;99.90;;;;;;4991385;28;20177;-54
2021/11/23 05:38:32;;;;;;;4.57;4.00;;;3.90;99.90;;;;;;4991703;28;20719;-52
2021/11/23 05:40:57;;;;;;;5.23;4.43;;;3.80;99.90;;;;;;4991354;28;20292;-51
2021/11/23 05:43:23;;;;;;;4.37;3.97;;;3.80;99.90;;;;;;4991526;28;20699;-52
2021/11/23 05:45:49;;;;;;;5.53;4.37;;;3.80;99.90;;;;;;4991222;28;20174;-53
2021/11/23 05:48:14;;;;;;;4.57;4.13;;;3.80;99.90;;;;;;4993168;28;20192;-51
2021/11/23 05:50:40;;;;;;;5.20;4.30;;;3.80;99.90;;;;;;4990672;28;20292;-51
2021/11/23 05:53:07;;;;;;;4.73;4.20;;;3.80;99.90;;;;;;4989715;28;20181;-51
2021/11/23 05:55:33;;;;;;;4.60;4.07;;;3.80;99.90;;;;;;4991186;28;20672;-57
2021/11/23 05:57:59;;;;;;;5.23;4.70;;;3.80;99.90;;;;;;4990983;28;20611;-53
2021/11/23 06:00:25;;;;;;;5.30;4.37;;;3.80;99.90;;;;;;4991402;28;20197;-51
2021/11/23 06:02:51;;;;;;;4.87;4.37;;;3.80;99.90;;;;;;4994359;28;20177;-51
2021/11/23 06:05:16;;;;;;;4.97;4.47;;;3.70;99.90;;;;;;4994415;28;20668;-53
2021/11/23 06:07:42;;;;;;;5.20;4.40;;;3.70;99.90;;;;;;4990682;28;20181;-50
2021/11/23 06:10:08;;;;;;;5.70;5.10;;;3.70;99.90;;;;;;4993762;28;20644;-53
2021/11/23 06:12:33;;;;;;;5.13;4.30;;;3.70;99.90;;;;;;4994593;28;20166;-52
2021/11/23 06:14:59;;;;;;;5.47;4.63;;;3.70;99.90;;;;;;4994118;28;20187;-52
2021/11/23 06:17:27;;;;;;;4.77;4.27;;;3.70;99.90;;;;;;4993528;28;20591;-55
2021/11/23 06:19:54;;;;;;;4.93;4.40;;;3.60;99.90;;;;;;4994362;28;20200;-50
2021/11/23 06:22:20;;;;;;;5.67;4.60;;;3.60;99.90;;;;;;4994566;28;20284;-57
2021/11/23 06:24:46;;;;;;;5.63;4.50;;;3.60;99.90;;;;;;4998050;28;20209;-54
2021/11/23 06:27:12;;;;;;;7.20;4.80;;;3.60;99.90;;;;;;4994053;28;20180;-53
2021/11/23 06:29:37;;;;;;;35.57;8.77;;;3.60;99.90;;;;;;4993994;28;20777;-53
2021/11/23 06:32:04;;;;;;;10.53;5.40;;;3.50;99.90;;;;;;4993981;28;20280;-50
2021/11/23 06:34:29;;;;;;;6.20;4.33;;;3.50;99.90;;;;;;4994180;28;20184;-51
2021/11/23 06:36:57;;;;;;;4.70;4.30;;;3.50;99.90;;;;;;5006574;23;20233;-64
2021/11/23 06:39:23;;;;;;;5.20;4.70;;;3.60;99.90;;;;;;4962481;28;20170;-63
2021/11/23 06:41:49;;;;;;;7.17;4.80;;;3.60;99.90;;;;;;4955301;28;20425;-62
2021/11/23 06:44:14;;;;;;;4.90;4.40;;;3.60;99.90;;;;;;4955426;28;20207;-64
2021/11/23 06:46:40;;;;;;;5.00;4.50;;;3.60;99.90;;;;;;4953951;28;20278;-64
2021/11/23 06:49:05;;;;;;;4.67;4.17;;;3.60;99.90;;;;;;4953726;29;20179;-64
2021/11/23 06:51:31;;;;;;;30.63;18.40;;;3.60;99.90;;;;;;4955386;29;20709;-59
2021/11/23 06:53:57;;;;;;;7.50;5.60;;;3.60;99.90;;;;;;4955383;28;20186;-62
2021/11/23 06:56:23;;;;;;;7.00;4.83;;;3.60;99.90;;;;;;4954834;28;20213;-62
2021/11/23 06:58:49;;;;;;;6.33;5.13;;;3.70;99.90;;;;;;4955325;28;20178;-62
2021/11/23 07:01:15;;;;;;;6.17;5.07;;;3.60;99.90;;;;;;4955146;28;20221;-63
2021/11/23 07:03:41;;;;;;;6.33;4.30;;;3.60;99.90;;;;;;4954951;28;20190;-63
2021/11/23 07:06:07;;;;;;;5.53;4.17;;;3.60;99.90;;;;;;4954528;28;20190;-63
2021/11/23 07:08:33;;;;;;;5.27;4.73;;;3.60;99.90;;;;;;4952209;28;20174;-63
2021/11/23 07:10:58;;;;;;;5.00;4.10;;;3.60;99.90;;;;;;4953956;29;20204;-65
2021/11/23 07:13:24;;;;;;;7.20;4.93;;;3.60;99.90;;;;;;4953738;28;20261;-64
2021/11/23 07:15:49;;;;;;;27.10;18.07;;;3.50;99.90;;;;;;4953907;28;20666;-63
2021/11/23 07:18:15;;;;;;;9.17;6.63;;;3.50;99.90;;;;;;4949300;29;20698;-64
2021/11/23 07:20:41;;;;;;;7.23;5.70;;;3.60;99.90;;;;;;4952578;28;20198;-64
2021/11/23 07:23:07;;;;;;;5.53;4.70;;;3.60;99.90;;;;;;4954769;29;20166;-63
2021/11/23 07:25:32;;;;;;;23.27;12.40;;;4.30;99.90;;;;;;4954399;28;20185;-61
2021/11/23 07:28:00;;;;;;;7.33;5.03;;;5.60;99.90;;;;;;4954898;29;20182;-63
2021/11/23 07:30:26;;;;;;;4.10;3.40;;;7.20;99.90;;;;;;4955242;29;20182;-64
2021/11/23 07:32:51;;;;;;;3.37;3.03;;;9.00;99.90;;;;;;4954824;29;20638;-64
2021/11/23 07:35:19;;;;;;;4.10;2.63;;;10.70;99.90;;;;;;4954096;28;20171;-64
2021/11/23 07:37:46;;;;;;;3.10;2.33;;;12.30;99.90;;;;;;4953998;28;20218;-64
2021/11/23 07:40:12;;;;;;;2.60;2.40;;;13.80;99.30;;;;;;4947099;28;20175;-65
2021/11/23 07:42:39;;;;;;;2.57;2.37;;;15.00;96.80;;;;;;4954157;29;20190;-62
2021/11/23 07:45:06;;;;;;;3.33;2.80;;;16.20;95.10;;;;;;4952715;28;20237;-63
2021/11/23 07:47:32;;;;;;;5.03;2.77;;;17.20;93.10;;;;;;4953059;28;20284;-62
2021/11/23 07:49:57;;;;;;;3.23;2.80;;;18.20;91.60;;;;;;4954188;29;20643;-63
2021/11/23 07:52:23;;;;;;;3.87;2.53;;;19.10;90.00;;;;;;4953984;29;20261;-63
2021/11/23 07:54:48;;;;;;;3.23;2.53;;;20.20;86.00;;;;;;4953553;29;20181;-62
2021/11/23 07:57:14;;;;;;;3.60;2.30;;;21.50;82.10;;;;;;4954159;28;20230;-62
2021/11/23 07:59:40;;;;;;;2.20;2.00;;;22.60;78.40;;;;;;4954167;28;20694;-65
2021/11/23 08:02:05;;;;;;;2.63;2.20;;;23.60;74.10;;;;;;4968771;28;20672;-62
2021/11/23 08:04:31;;;;;;;2.80;2.60;;;24.30;70.20;;;;;;4953957;29;20198;-55
2021/11/23 08:06:57;;;;;;;4.15;2.50;;;23.50;66.00;;;;;;4953731;28;20240;-48
2021/11/23 08:09:22;;;;;;;2.93;2.33;;;20.60;68.20;;;;;;4954952;29;20167;-48
2021/11/23 08:11:48;;;;;;;2.83;2.63;;;18.30;71.30;;;;;;4953254;29;20171;-52
2021/11/23 08:14:14;;;;;;;3.43;3.20;;;17.70;74.80;;;;;;4953613;29;20669;-44
2021/11/23 08:16:39;;;;;;;7.30;3.23;;;16.80;76.80;;;;;;4953297;28;20218;-47
2021/11/23 08:19:05;;;;;;;5.07;3.07;;;15.80;79.90;;;;;;4953677;29;20179;-48
2021/11/23 08:21:31;;;;;;;6.73;3.57;;;14.90;82.00;;;;;;4954112;28;20179;-51
2021/11/23 08:23:57;;;;;;;2.60;2.40;;;14.10;82.70;;;;;;4952720;28;20570;-47
2021/11/23 08:26:24;;;;;;;3.57;2.63;;;13.40;89.00;;;;;;4953357;28;20196;-52
2021/11/23 08:28:51;;;;;;;3.40;3.10;;;13.20;88.90;;;;;;4953483;29;20261;-51
2021/11/23 08:31:16;;;;;;;3.00;2.00;;;12.90;88.60;;;;;;4953866;29;20179;-43
2021/11/23 08:33:42;;;;;;;1.10;1.00;;;12.80;95.30;;;;;;4953643;29;20185;-44
2021/11/23 08:36:08;;;;;;;1.53;1.20;;;13.10;99.90;;;;;;4953234;28;20264;-44
2021/11/23 08:38:36;;;;;;;1.00;1.00;;;13.60;99.90;;;;;;4953590;29;20188;-44
2021/11/23 08:41:02;;;;;;;0.80;0.80;;;14.40;99.90;;;;;;4953364;29;20184;-48
2021/11/23 08:43:27;;;;;;;0.80;0.80;;;15.30;99.90;;;;;;4953856;29;20712;-47
2021/11/23 08:45:53;;;;;;;0.77;0.77;;;16.20;99.90;;;;;;4953240;28;20191;-48
2021/11/23 08:48:19;;;;;;;0.97;0.97;;;16.80;99.90;;;;;;4952573;29;20175;-51
2021/11/23 08:50:45;;;;;;;0.83;0.80;;;17.40;99.90;;;;;;4953304;29;20206;-51
2021/11/23 08:53:10;;;;;;;1.17;0.67;;;18.00;99.90;;;;;;4953173;29;20175;-51
2021/11/23 08:55:37;;;;;;;0.67;0.67;;;18.70;99.90;;;;;;4952731;28;20175;-52
2021/11/23 08:58:04;;;;;;;0.60;0.60;;;19.30;99.90;;;;;;4953790;28;20167;-47
2021/11/23 09:00:30;;;;;;;0.93;0.60;;;19.80;99.90;;;;;;4953552;28;20178;-50
2021/11/23 09:02:58;;;;;;;0.55;0.55;;;20.20;99.90;;;;;;4953113;28;20166;-48
2021/11/23 09:05:24;;;;;;;0.57;0.57;;;20.60;99.90;;;;;;4967617;28;20184;-44
2021/11/23 09:07:50;;;;;;;1.30;0.65;;;21.00;99.90;;;;;;4949675;28;20252;-46
2021/11/23 09:10:20;;;;;;;1.02;0.60;;;21.50;99.90;;;;;;4952156;28;20183;-53
2021/11/23 09:12:48;;;;;;;0.52;0.52;;;22.10;99.90;;;;;;4952620;28;20202;-48
2021/11/23 09:15:14;;;;;;;2.45;0.43;;;22.80;99.90;;;;;;4952881;28;20681;-46
2021/11/23 09:17:40;;;;;;;0.57;0.57;;;23.50;99.90;;;;;;4953090;28;20210;-48
2021/11/23 09:20:08;;;;;;;0.80;0.77;;;24.10;99.90;;;;;;4953264;29;20674;-50
2021/11/23 09:22:33;;;;;;;0.50;0.50;;;24.80;99.90;;;;;;4953192;29;20190;-49
2021/11/23 09:24:59;;;;;;;0.70;0.70;;;25.50;99.90;;;;;;4952713;29;20202;-50
2021/11/23 09:27:24;;;;;;;0.68;0.68;;;26.00;99.60;;;;;;4950391;28;20235;-47
2021/11/23 09:29:50;;;;;;;0.70;0.70;;;26.60;99.50;;;;;;4952870;29;20270;-48
2021/11/23 09:32:16;;;;;;;0.70;0.70;;;27.00;98.50;;;;;;4953264;29;20182;-53
2021/11/23 09:34:42;;;;;;;0.60;0.60;;;27.40;98.20;;;;;;4951452;28;20685;-49
2021/11/23 09:37:09;;;;;;;0.60;0.60;;;27.70;97.20;;;;;;4956672;28;20238;-47
2021/11/23 09:39:35;;;;;;;0.63;0.63;;;27.90;96.90;;;;;;4956855;28;20283;-47
2021/11/23 09:42:01;;;;;;;0.60;0.60;;;28.20;96.90;;;;;;4956573;28;20261;-46
2021/11/23 09:44:27;;;;;;;0.50;0.50;;;28.70;97.20;;;;;;4956796;28;20209;-51
2021/11/23 09:46:53;;;;;;;0.63;0.63;;;29.00;97.20;;;;;;4955916;28;20190;-52
2021/11/23 09:49:19;;;;;;;1.08;0.77;;;29.30;98.20;;;;;;4956442;28;20231;-52
2021/11/23 09:51:45;;;;;;;0.70;0.70;;;29.80;98.00;;;;;;4955497;29;20175;-53
2021/11/23 09:54:12;;;;;;;0.43;0.43;;;30.30;97.90;;;;;;4956516;28;20210;-52
2021/11/23 09:56:40;;;;;;;0.68;0.63;;;30.70;98.10;;;;;;4955471;28;20191;-49
2021/11/23 09:59:06;;;;;;;0.63;0.63;;;31.10;98.40;;;;;;4955909;28;20233;-51
2021/11/23 10:01:58;;;;;;;0.60;0.60;;;31.50;97.30;;;;;;4956200;29;20182;-48
2021/11/23 10:04:26;;;;;;;0.82;0.82;;;31.90;97.40;;;;;;4956198;29;20207;-51
2021/11/23 10:07:12;;;;;;;0.60;0.60;;;32.40;95.70;;;;;;4955669;29;20203;-48
2021/11/23 10:09:40;;;;;;;0.90;0.55;;;32.70;96.00;;;;;;4955877;28;20561;-53
2021/11/23 10:12:24;;;;;;;0.50;0.50;;;32.90;96.20;;;;;;4956157;28;20178;-53
2021/11/23 10:15:08;;;;;;;0.43;0.43;;;33.30;96.40;;;;;;4955618;29;20606;-50
2021/11/23 10:17:35;;;;;;;0.50;0.50;;;33.80;96.00;;;;;;4954904;29;20205;-54
2021/11/23 10:20:00;;;;;;;0.50;0.50;;;34.00;95.10;;;;;;4955936;29;20175;-51
2021/11/23 10:22:37;;;;;;;0.50;0.50;;;34.30;96.10;;;;;;4956186;29;20233;-51
2021/11/23 10:25:06;;;;;;;0.60;0.60;;;34.80;94.70;;;;;;4951719;29;20768;-51
2021/11/23 10:27:35;;;;;;;0.55;0.55;;;34.90;94.70;;;;;;4954574;28;20206;-52
2021/11/23 10:30:02;;;;;;;0.52;0.52;;;35.20;94.90;;;;;;4951990;29;20549;-51
2021/11/23 10:32:43;;;;;;;0.50;0.50;;;35.30;93.40;;;;;;4955434;28;20182;-49
2021/11/23 10:35:20;;;;;;;1.55;0.50;;;35.60;94.40;;;;;;4949779;29;20640;-52
2021/11/23 10:37:46;;;;;;;0.52;0.52;;;35.90;94.50;;;;;;4946956;28;20228;-49
2021/11/23 10:40:17;;;;;;;0.55;0.52;;;36.10;93.60;;;;;;4935489;29;20205;-54
2021/11/23 10:42:49;;;;;;;0.50;0.50;;;36.50;93.80;;;;;;4955416;29;20182;-48
2021/11/23 10:45:14;;;;;;;0.50;0.50;;;36.70;93.00;;;;;;4955486;29;20226;-50
2021/11/23 10:47:43;;;;;;;0.40;0.40;;;37.00;92.60;;;;;;4936719;29;20229;-51
2021/11/23 10:50:13;;;;;;;0.30;0.30;;;37.20;92.80;;;;;;4952734;29;20182;-47
2021/11/23 10:52:44;;;;;;;0.30;0.30;;;37.50;92.10;;;;;;4954929;28;20229;-50
2021/11/23 10:55:31;;;;;;;0.60;0.20;;;37.70;91.80;;;;;;4953423;28;20182;-45
2021/11/23 10:58:00;;;;;;;0.35;0.35;;;37.90;91.60;;;;;;4951660;29;20877;-50
2021/11/23 11:00:29;;;;;;;0.95;0.25;;;38.00;91.60;;;;;;4954984;28;20171;-51
2021/11/23 11:03:01;;;;;;;0.30;0.30;;;38.20;90.80;;;;;;4954141;28;20589;-49
2021/11/23 11:05:28;;;;;;;0.40;0.40;;;38.40;91.20;;;;;;4954245;28;20182;-50
2021/11/23 11:07:56;;;;;;;1.45;0.30;;;38.50;90.60;;;;;;4954552;28;20266;-49
2021/11/23 11:10:21;;;;;;;0.20;0.20;;;38.70;90.40;;;;;;4954825;28;20523;-54
2021/11/23 11:12:47;;;;;;;0.30;0.30;;;38.90;89.90;;;;;;4954856;28;20181;-52
2021/11/23 11:15:16;;;;;;;0.43;0.40;;;39.20;89.70;;;;;;4954644;28;20662;-50
2021/11/23 11:17:44;;;;;;;0.65;0.52;;;39.20;88.00;;;;;;4954305;28;20637;-53
2021/11/23 11:20:11;;;;;;;0.22;0.22;;;39.40;87.40;;;;;;4954714;29;20244;-48
2021/11/23 11:22:51;;;;;;;0.40;0.30;;;39.40;83.50;;;;;;4954937;28;20170;-49
2021/11/23 11:25:27;;;;;;;0.30;0.30;;;39.50;83.60;;;;;;4954458;29;20205;-51
2021/11/23 11:27:54;;;;;;;0.20;0.20;;;39.50;84.00;;;;;;4954719;29;20561;-53
2021/11/23 11:30:31;;;;;;;0.20;0.20;;;39.60;85.60;;;;;;4954914;29;20167;-49
2021/11/23 11:33:06;;;;;;;0.30;0.30;;;39.80;85.00;;;;;;4954579;28;20269;-49
2021/11/23 11:35:33;;;;;;;0.35;0.35;;;39.90;84.20;;;;;;4954438;29;20208;-52
2021/11/23 11:38:00;;;;;;;0.28;0.28;;;39.90;80.70;;;;;;4950087;28;20213;-50
2021/11/23 11:40:29;;;;;;;0.30;0.30;;;39.80;82.70;;;;;;4954096;28;20716;-51
2021/11/23 11:42:56;;;;;;;0.20;0.20;;;39.90;83.20;;;;;;4954408;28;20198;-49
2021/11/23 11:45:24;;;;;;;0.20;0.20;;;39.90;82.20;;;;;;4954163;29;20687;-49
2021/11/23 11:47:52;;;;;;;0.20;0.20;;;39.90;83.10;;;;;;4954633;28;20186;-53
2021/11/23 11:50:28;;;;;;;0.30;0.30;;;39.90;82.10;;;;;;4954333;28;20248;-50
2021/11/23 11:53:03;;;;;;;0.38;0.38;;;40.00;82.00;;;;;;4954466;29;20170;-48
2021/11/23 11:55:30;;;;;;;0.30;0.20;;;40.00;82.20;;;;;;4954088;28;20170;-56
2021/11/23 11:58:02;;;;;;;0.20;0.20;;;40.00;81.90;;;;;;4953475;28;20197;-50
2021/11/23 12:00:34;;;;;;;0.30;0.30;;;40.00;77.20;;;;;;4954068;29;20166;-51
2021/11/23 12:03:02;;;;;;;0.30;0.30;;;40.00;80.20;;;;;;4953973;29;20585;-49
2021/11/23 12:05:46;;;;;;;0.35;0.32;;;39.80;80.10;;;;;;4953702;28;20173;-53
2021/11/23 12:08:35;;;;;;;0.30;0.30;;;39.80;79.20;;;;;;4954028;29;20621;-49
2021/11/23 12:11:04;;;;;;;0.32;0.30;;;39.70;80.20;;;;;;4953878;29;20170;-50
2021/11/23 12:13:46;;;;;;;0.30;0.30;;;39.70;79.40;;;;;;4954015;29;20198;-49
2021/11/23 12:16:38;;;;;;;0.35;0.35;;;39.70;80.30;;;;;;4953607;29;20757;-54
2021/11/23 12:19:40;;;;;;;0.30;0.30;;;39.70;79.50;;;;;;4934696;29;20261;-52
2021/11/23 12:22:19;;;;;;;0.30;0.30;;;39.70;79.30;;;;;;4934706;29;20182;-52
2021/11/23 12:24:45;;;;;;;0.40;0.40;;;39.70;78.80;;;;;;4934370;29;20307;-50
2021/11/23 12:27:17;;;;;;;0.40;0.40;;;39.60;77.60;;;;;;4934354;29;20207;-53
2021/11/23 12:29:46;;;;;;;0.40;0.40;;;39.70;77.50;;;;;;4934450;29;20665;-51
2021/11/23 12:32:12;;;;;;;0.32;0.30;;;39.60;77.00;;;;;;4934736;29;20599;-49
2021/11/23 12:34:51;;;;;;;1.15;0.35;;;39.50;76.30;;;;;;4934395;29;20171;-48
2021/11/23 12:37:17;;;;;;;0.40;0.40;;;39.20;75.70;;;;;;5027835;23;20708;-46
2021/11/23 12:39:43;;;;;;;0.30;0.30;;;38.80;76.50;;;;;;5016041;28;20168;-54
2021/11/23 12:42:10;;;;;;;0.47;0.47;;;38.80;76.90;;;;;;5026125;28;20642;-51
2021/11/23 12:44:41;;;;;;;0.40;0.40;;;38.80;76.80;;;;;;5030759;28;20252;-51
2021/11/23 12:47:12;;;;;;;0.40;0.40;;;38.80;76.30;;;;;;5013566;28;20200;-48
2021/11/23 12:49:39;;;;;;;0.40;0.40;;;38.70;76.00;;;;;;4991566;28;20276;-54
2021/11/23 12:52:11;;;;;;;0.40;0.40;;;38.60;75.10;;;;;;4992055;28;20173;-53
2021/11/23 12:54:45;;;;;;;0.50;0.50;;;38.60;73.50;;;;;;4993751;28;20181;-49